sensor_id;sensor_type;location;lat;lon;timestamp;P1;durP1;ratioP1;P2;durP2;ratioP2
21233;SDS011;10774;42.178;26.578;2023-04-03T00:01:22;5.72;;;3.35;;
21233;SDS011;10774;42.178;26.578;2023-04-03T00:03:47;6.53;;;3.90;;
21233;SDS011;10774;42.178;26.578;2023-04-03T00:06:13;11.73;;;5.50;;
21233;SDS011;10774;42.178;26.578;2023-04-03T00:08:39;10.75;;;5.13;;
21233;SDS011;10774;42.178;26.578;2023-04-03T00:11:05;10.00;;;5.60;;
21233;SDS011;10774;42.178;26.578;2023-04-03T00:13:32;12.45;;;5.72;;
21233;SDS011;10774;42.178;26.578;2023-04-03T00:15:58;12.07;;;6.68;;
21233;SDS011;10774;42.178;26.578;2023-04-03T00:18:23;9.07;;;4.68;;
21233;SDS011;10774;42.178;26.578;2023-04-03T00:20:49;9.93;;;4.78;;
21233;SDS011;10774;42.178;26.578;2023-04-03T00:23:14;11.55;;;6.13;;
21233;SDS011;10774;42.178;26.578;2023-04-03T00:25:40;10.32;;;5.55;;
21233;SDS011;10774;42.178;26.578;2023-04-03T00:28:06;10.35;;;5.80;;
21233;SDS011;10774;42.178;26.578;2023-04-03T00:30:32;9.80;;;6.45;;
21233;SDS011;10774;42.178;26.578;2023-04-03T00:32:57;18.65;;;9.50;;
21233;SDS011;10774;42.178;26.578;2023-04-03T00:35:23;31.80;;;16.75;;
21233;SDS011;10774;42.178;26.578;2023-04-03T00:37:53;43.15;;;23.65;;
21233;SDS011;10774;42.178;26.578;2023-04-03T00:40:20;28.02;;;16.40;;
21233;SDS011;10774;42.178;26.578;2023-04-03T00:42:47;26.00;;;14.38;;
21233;SDS011;10774;42.178;26.578;2023-04-03T00:47:56;9.52;;;5.68;;
21233;SDS011;10774;42.178;26.578;2023-04-03T00:50:25;11.32;;;4.60;;
21233;SDS011;10774;42.178;26.578;2023-04-03T00:52:52;10.23;;;4.50;;
21233;SDS011;10774;42.178;26.578;2023-04-03T00:55:18;9.88;;;4.75;;
21233;SDS011;10774;42.178;26.578;2023-04-03T00:57:44;12.23;;;5.78;;
21233;SDS011;10774;42.178;26.578;2023-04-03T01:00:12;10.13;;;4.75;;
21233;SDS011;10774;42.178;26.578;2023-04-03T01:02:41;10.68;;;5.15;;
21233;SDS011;10774;42.178;26.578;2023-04-03T01:05:06;12.38;;;5.80;;
21233;SDS011;10774;42.178;26.578;2023-04-03T01:07:32;10.75;;;4.85;;
21233;SDS011;10774;42.178;26.578;2023-04-03T01:10:03;9.18;;;4.35;;
21233;SDS011;10774;42.178;26.578;2023-04-03T01:12:35;9.13;;;3.85;;
21233;SDS011;10774;42.178;26.578;2023-04-03T01:15:09;6.80;;;4.03;;
21233;SDS011;10774;42.178;26.578;2023-04-03T01:17:39;6.93;;;4.05;;
21233;SDS011;10774;42.178;26.578;2023-04-03T01:25:28;9.63;;;4.82;;
21233;SDS011;10774;42.178;26.578;2023-04-03T01:27:53;9.35;;;4.47;;
21233;SDS011;10774;42.178;26.578;2023-04-03T01:30:21;7.57;;;4.20;;
21233;SDS011;10774;42.178;26.578;2023-04-03T01:32:52;10.60;;;4.70;;
21233;SDS011;10774;42.178;26.578;2023-04-03T01:35:18;12.48;;;7.75;;
21233;SDS011;10774;42.178;26.578;2023-04-03T01:37:54;14.13;;;6.82;;
21233;SDS011;10774;42.178;26.578;2023-04-03T01:42:51;16.60;;;9.40;;
21233;SDS011;10774;42.178;26.578;2023-04-03T01:45:16;17.50;;;10.80;;
21233;SDS011;10774;42.178;26.578;2023-04-03T01:47:42;13.02;;;6.97;;
21233;SDS011;10774;42.178;26.578;2023-04-03T01:50:08;12.90;;;5.88;;
21233;SDS011;10774;42.178;26.578;2023-04-03T01:52:33;12.18;;;5.88;;
21233;SDS011;10774;42.178;26.578;2023-04-03T01:54:59;10.50;;;5.40;;
21233;SDS011;10774;42.178;26.578;2023-04-03T01:57:24;14.43;;;5.38;;
21233;SDS011;10774;42.178;26.578;2023-04-03T01:59:50;8.20;;;5.60;;
21233;SDS011;10774;42.178;26.578;2023-04-03T02:02:16;10.45;;;5.43;;
21233;SDS011;10774;42.178;26.578;2023-04-03T02:04:41;11.48;;;6.13;;
21233;SDS011;10774;42.178;26.578;2023-04-03T02:07:07;9.23;;;5.22;;
21233;SDS011;10774;42.178;26.578;2023-04-03T02:09:32;11.38;;;5.82;;
21233;SDS011;10774;42.178;26.578;2023-04-03T02:11:58;9.23;;;4.15;;
21233;SDS011;10774;42.178;26.578;2023-04-03T02:14:23;8.05;;;4.18;;
21233;SDS011;10774;42.178;26.578;2023-04-03T02:16:49;11.48;;;4.78;;
21233;SDS011;10774;42.178;26.578;2023-04-03T02:19:15;7.07;;;4.30;;
21233;SDS011;10774;42.178;26.578;2023-04-03T02:21:40;7.72;;;4.60;;
21233;SDS011;10774;42.178;26.578;2023-04-03T02:24:06;8.43;;;4.43;;
21233;SDS011;10774;42.178;26.578;2023-04-03T02:26:31;12.80;;;5.32;;
21233;SDS011;10774;42.178;26.578;2023-04-03T02:28:57;11.95;;;6.10;;
21233;SDS011;10774;42.178;26.578;2023-04-03T02:31:22;9.85;;;4.82;;
21233;SDS011;10774;42.178;26.578;2023-04-03T02:33:49;8.38;;;4.13;;
21233;SDS011;10774;42.178;26.578;2023-04-03T02:36:15;7.70;;;4.15;;
21233;SDS011;10774;42.178;26.578;2023-04-03T02:38:40;10.95;;;4.97;;
21233;SDS011;10774;42.178;26.578;2023-04-03T02:41:07;10.32;;;5.55;;
21233;SDS011;10774;42.178;26.578;2023-04-03T02:43:34;12.52;;;6.32;;
21233;SDS011;10774;42.178;26.578;2023-04-03T02:46:00;9.27;;;5.50;;
21233;SDS011;10774;42.178;26.578;2023-04-03T02:48:25;11.73;;;5.60;;
21233;SDS011;10774;42.178;26.578;2023-04-03T02:50:51;11.15;;;5.72;;
21233;SDS011;10774;42.178;26.578;2023-04-03T02:53:16;10.70;;;5.60;;
21233;SDS011;10774;42.178;26.578;2023-04-03T02:55:42;9.55;;;6.40;;
21233;SDS011;10774;42.178;26.578;2023-04-03T02:58:09;11.60;;;6.30;;
21233;SDS011;10774;42.178;26.578;2023-04-03T03:00:34;11.60;;;5.72;;
21233;SDS011;10774;42.178;26.578;2023-04-03T03:03:00;9.65;;;5.20;;
21233;SDS011;10774;42.178;26.578;2023-04-03T03:05:26;10.88;;;5.53;;
21233;SDS011;10774;42.178;26.578;2023-04-03T03:07:52;11.20;;;5.95;;
21233;SDS011;10774;42.178;26.578;2023-04-03T03:10:18;9.45;;;6.88;;
21233;SDS011;10774;42.178;26.578;2023-04-03T03:12:44;15.25;;;8.48;;
21233;SDS011;10774;42.178;26.578;2023-04-03T03:15:10;14.07;;;9.60;;
21233;SDS011;10774;42.178;26.578;2023-04-03T03:17:35;12.70;;;8.15;;
21233;SDS011;10774;42.178;26.578;2023-04-03T03:20:01;11.48;;;5.25;;
21233;SDS011;10774;42.178;26.578;2023-04-03T03:22:30;10.02;;;6.53;;
21233;SDS011;10774;42.178;26.578;2023-04-03T03:24:56;14.90;;;9.07;;
21233;SDS011;10774;42.178;26.578;2023-04-03T03:27:21;22.38;;;10.20;;
21233;SDS011;10774;42.178;26.578;2023-04-03T03:29:47;15.70;;;8.45;;
21233;SDS011;10774;42.178;26.578;2023-04-03T03:32:12;11.63;;;7.95;;
21233;SDS011;10774;42.178;26.578;2023-04-03T03:34:38;10.63;;;6.57;;
21233;SDS011;10774;42.178;26.578;2023-04-03T03:37:03;13.52;;;7.82;;
21233;SDS011;10774;42.178;26.578;2023-04-03T03:39:29;23.00;;;9.25;;
21233;SDS011;10774;42.178;26.578;2023-04-03T03:41:55;31.35;;;16.38;;
21233;SDS011;10774;42.178;26.578;2023-04-03T03:44:20;29.83;;;15.48;;
21233;SDS011;10774;42.178;26.578;2023-04-03T03:46:46;25.42;;;13.35;;
21233;SDS011;10774;42.178;26.578;2023-04-03T03:49:12;17.40;;;10.43;;
21233;SDS011;10774;42.178;26.578;2023-04-03T03:51:38;24.60;;;13.55;;
21233;SDS011;10774;42.178;26.578;2023-04-03T03:54:04;31.45;;;14.55;;
21233;SDS011;10774;42.178;26.578;2023-04-03T03:56:30;34.08;;;18.33;;
21233;SDS011;10774;42.178;26.578;2023-04-03T03:58:56;52.28;;;29.15;;
21233;SDS011;10774;42.178;26.578;2023-04-03T04:01:22;30.17;;;16.40;;
21233;SDS011;10774;42.178;26.578;2023-04-03T04:03:48;29.10;;;18.13;;
21233;SDS011;10774;42.178;26.578;2023-04-03T04:06:13;39.85;;;26.35;;
21233;SDS011;10774;42.178;26.578;2023-04-03T04:08:39;36.95;;;24.15;;
21233;SDS011;10774;42.178;26.578;2023-04-03T04:11:04;36.17;;;24.35;;
21233;SDS011;10774;42.178;26.578;2023-04-03T04:13:30;41.38;;;26.48;;
21233;SDS011;10774;42.178;26.578;2023-04-03T04:15:55;31.38;;;20.17;;
21233;SDS011;10774;42.178;26.578;2023-04-03T04:18:21;33.00;;;21.15;;
21233;SDS011;10774;42.178;26.578;2023-04-03T04:20:47;43.78;;;23.02;;
21233;SDS011;10774;42.178;26.578;2023-04-03T04:23:13;31.38;;;19.10;;
21233;SDS011;10774;42.178;26.578;2023-04-03T04:25:39;29.58;;;16.27;;
21233;SDS011;10774;42.178;26.578;2023-04-03T04:28:05;27.50;;;16.20;;
21233;SDS011;10774;42.178;26.578;2023-04-03T04:30:31;27.80;;;15.02;;
21233;SDS011;10774;42.178;26.578;2023-04-03T04:32:56;31.25;;;15.05;;
21233;SDS011;10774;42.178;26.578;2023-04-03T04:35:22;28.35;;;15.80;;
21233;SDS011;10774;42.178;26.578;2023-04-03T04:37:47;45.40;;;28.00;;
21233;SDS011;10774;42.178;26.578;2023-04-03T04:40:12;29.48;;;17.40;;
21233;SDS011;10774;42.178;26.578;2023-04-03T04:42:38;25.88;;;17.55;;
21233;SDS011;10774;42.178;26.578;2023-04-03T04:45:03;34.25;;;20.00;;
21233;SDS011;10774;42.178;26.578;2023-04-03T04:47:29;61.35;;;31.30;;
21233;SDS011;10774;42.178;26.578;2023-04-03T04:49:55;59.20;;;25.98;;
21233;SDS011;10774;42.178;26.578;2023-04-03T04:52:20;23.92;;;11.73;;
21233;SDS011;10774;42.178;26.578;2023-04-03T04:54:46;18.02;;;9.27;;
21233;SDS011;10774;42.178;26.578;2023-04-03T04:57:11;18.80;;;10.95;;
21233;SDS011;10774;42.178;26.578;2023-04-03T04:59:37;26.45;;;14.48;;
21233;SDS011;10774;42.178;26.578;2023-04-03T05:02:02;40.15;;;21.75;;
21233;SDS011;10774;42.178;26.578;2023-04-03T05:04:27;49.42;;;28.60;;
21233;SDS011;10774;42.178;26.578;2023-04-03T05:06:53;59.55;;;32.88;;
21233;SDS011;10774;42.178;26.578;2023-04-03T05:09:19;50.70;;;25.65;;
21233;SDS011;10774;42.178;26.578;2023-04-03T05:11:45;33.55;;;17.75;;
21233;SDS011;10774;42.178;26.578;2023-04-03T05:14:12;30.65;;;19.27;;
21233;SDS011;10774;42.178;26.578;2023-04-03T05:16:37;32.22;;;18.17;;
21233;SDS011;10774;42.178;26.578;2023-04-03T05:19:03;33.50;;;19.98;;
21233;SDS011;10774;42.178;26.578;2023-04-03T05:21:29;47.15;;;26.23;;
21233;SDS011;10774;42.178;26.578;2023-04-03T05:24:00;54.33;;;36.20;;
21233;SDS011;10774;42.178;26.578;2023-04-03T05:26:30;46.88;;;31.27;;
21233;SDS011;10774;42.178;26.578;2023-04-03T05:28:56;52.50;;;36.88;;
21233;SDS011;10774;42.178;26.578;2023-04-03T05:31:22;42.38;;;30.27;;
21233;SDS011;10774;42.178;26.578;2023-04-03T05:33:48;17.25;;;11.98;;
21233;SDS011;10774;42.178;26.578;2023-04-03T05:36:14;24.58;;;18.13;;
21233;SDS011;10774;42.178;26.578;2023-04-03T05:38:40;22.75;;;14.93;;
21233;SDS011;10774;42.178;26.578;2023-04-03T05:41:05;17.38;;;12.93;;
21233;SDS011;10774;42.178;26.578;2023-04-03T05:43:31;14.98;;;9.50;;
21233;SDS011;10774;42.178;26.578;2023-04-03T05:45:57;14.30;;;10.57;;
21233;SDS011;10774;42.178;26.578;2023-04-03T05:48:23;14.40;;;10.23;;
21233;SDS011;10774;42.178;26.578;2023-04-03T05:50:48;15.27;;;9.30;;
21233;SDS011;10774;42.178;26.578;2023-04-03T05:53:25;15.65;;;10.90;;
21233;SDS011;10774;42.178;26.578;2023-04-03T05:58:59;13.05;;;7.72;;
21233;SDS011;10774;42.178;26.578;2023-04-03T06:01:25;11.63;;;9.02;;
21233;SDS011;10774;42.178;26.578;2023-04-03T06:03:51;18.83;;;15.15;;
21233;SDS011;10774;42.178;26.578;2023-04-03T06:06:17;19.75;;;9.88;;
21233;SDS011;10774;42.178;26.578;2023-04-03T06:08:43;9.43;;;7.10;;
21233;SDS011;10774;42.178;26.578;2023-04-03T06:11:09;13.38;;;7.05;;
21233;SDS011;10774;42.178;26.578;2023-04-03T06:13:35;10.15;;;7.03;;
21233;SDS011;10774;42.178;26.578;2023-04-03T06:18:51;7.57;;;5.55;;
21233;SDS011;10774;42.178;26.578;2023-04-03T06:21:16;8.38;;;6.25;;
21233;SDS011;10774;42.178;26.578;2023-04-03T06:23:42;10.93;;;7.80;;
21233;SDS011;10774;42.178;26.578;2023-04-03T06:26:07;12.30;;;7.10;;
21233;SDS011;10774;42.178;26.578;2023-04-03T06:28:33;10.18;;;7.03;;
21233;SDS011;10774;42.178;26.578;2023-04-03T06:30:58;9.57;;;7.80;;
21233;SDS011;10774;42.178;26.578;2023-04-03T06:33:23;13.23;;;10.82;;
21233;SDS011;10774;42.178;26.578;2023-04-03T06:35:49;19.75;;;14.35;;
21233;SDS011;10774;42.178;26.578;2023-04-03T06:38:14;20.45;;;14.68;;
21233;SDS011;10774;42.178;26.578;2023-04-03T06:40:40;18.90;;;13.63;;
21233;SDS011;10774;42.178;26.578;2023-04-03T06:43:05;24.08;;;15.23;;
21233;SDS011;10774;42.178;26.578;2023-04-03T06:45:31;24.15;;;15.20;;
21233;SDS011;10774;42.178;26.578;2023-04-03T06:47:56;22.00;;;13.10;;
21233;SDS011;10774;42.178;26.578;2023-04-03T06:50:21;16.65;;;12.90;;
21233;SDS011;10774;42.178;26.578;2023-04-03T06:52:47;21.10;;;13.80;;
21233;SDS011;10774;42.178;26.578;2023-04-03T06:55:12;19.42;;;12.77;;
21233;SDS011;10774;42.178;26.578;2023-04-03T06:57:38;17.30;;;12.10;;
21233;SDS011;10774;42.178;26.578;2023-04-03T07:00:04;17.50;;;12.13;;
21233;SDS011;10774;42.178;26.578;2023-04-03T07:02:32;19.40;;;12.43;;
21233;SDS011;10774;42.178;26.578;2023-04-03T07:04:57;16.08;;;11.40;;
21233;SDS011;10774;42.178;26.578;2023-04-03T07:07:23;16.67;;;11.60;;
21233;SDS011;10774;42.178;26.578;2023-04-03T07:09:48;14.07;;;9.27;;
21233;SDS011;10774;42.178;26.578;2023-04-03T07:12:15;11.68;;;7.57;;
21233;SDS011;10774;42.178;26.578;2023-04-03T07:14:41;19.73;;;8.57;;
21233;SDS011;10774;42.178;26.578;2023-04-03T07:17:06;15.10;;;8.05;;
21233;SDS011;10774;42.178;26.578;2023-04-03T07:19:31;13.90;;;7.88;;
21233;SDS011;10774;42.178;26.578;2023-04-03T07:21:57;14.15;;;8.57;;
21233;SDS011;10774;42.178;26.578;2023-04-03T07:24:22;14.75;;;7.72;;
21233;SDS011;10774;42.178;26.578;2023-04-03T07:26:51;15.85;;;8.57;;
21233;SDS011;10774;42.178;26.578;2023-04-03T07:29:17;15.23;;;8.68;;
21233;SDS011;10774;42.178;26.578;2023-04-03T07:31:43;17.95;;;10.35;;
21233;SDS011;10774;42.178;26.578;2023-04-03T07:34:09;20.83;;;12.63;;
21233;SDS011;10774;42.178;26.578;2023-04-03T07:36:35;38.75;;;23.85;;
21233;SDS011;10774;42.178;26.578;2023-04-03T07:39:01;29.88;;;19.45;;
21233;SDS011;10774;42.178;26.578;2023-04-03T07:41:26;25.98;;;16.40;;
21233;SDS011;10774;42.178;26.578;2023-04-03T07:43:53;45.72;;;28.15;;
21233;SDS011;10774;42.178;26.578;2023-04-03T07:46:19;43.67;;;27.13;;
21233;SDS011;10774;42.178;26.578;2023-04-03T07:48:45;71.50;;;41.88;;
21233;SDS011;10774;42.178;26.578;2023-04-03T07:51:11;41.47;;;25.00;;
21233;SDS011;10774;42.178;26.578;2023-04-03T07:53:36;32.78;;;18.60;;
21233;SDS011;10774;42.178;26.578;2023-04-03T07:56:01;30.23;;;18.73;;
21233;SDS011;10774;42.178;26.578;2023-04-03T07:58:28;29.30;;;18.08;;
21233;SDS011;10774;42.178;26.578;2023-04-03T08:00:54;30.42;;;18.20;;
21233;SDS011;10774;42.178;26.578;2023-04-03T08:03:19;24.50;;;18.15;;
21233;SDS011;10774;42.178;26.578;2023-04-03T08:05:45;29.38;;;18.13;;
21233;SDS011;10774;42.178;26.578;2023-04-03T08:08:13;25.50;;;17.10;;
21233;SDS011;10774;42.178;26.578;2023-04-03T08:10:41;21.63;;;14.88;;
21233;SDS011;10774;42.178;26.578;2023-04-03T08:13:09;21.33;;;12.93;;
21233;SDS011;10774;42.178;26.578;2023-04-03T08:15:35;18.33;;;10.60;;
21233;SDS011;10774;42.178;26.578;2023-04-03T08:18:01;16.60;;;8.88;;
21233;SDS011;10774;42.178;26.578;2023-04-03T08:20:28;12.77;;;8.60;;
21233;SDS011;10774;42.178;26.578;2023-04-03T08:22:54;19.50;;;9.98;;
21233;SDS011;10774;42.178;26.578;2023-04-03T08:25:20;19.30;;;10.60;;
21233;SDS011;10774;42.178;26.578;2023-04-03T08:27:45;22.65;;;13.60;;
21233;SDS011;10774;42.178;26.578;2023-04-03T08:30:11;14.45;;;8.43;;
21233;SDS011;10774;42.178;26.578;2023-04-03T08:32:37;14.73;;;8.00;;
21233;SDS011;10774;42.178;26.578;2023-04-03T08:35:03;11.15;;;5.82;;
21233;SDS011;10774;42.178;26.578;2023-04-03T08:37:29;11.73;;;7.07;;
21233;SDS011;10774;42.178;26.578;2023-04-03T08:39:55;11.07;;;5.55;;
21233;SDS011;10774;42.178;26.578;2023-04-03T08:45:13;12.18;;;7.60;;
21233;SDS011;10774;42.178;26.578;2023-04-03T08:47:47;12.07;;;7.85;;
21233;SDS011;10774;42.178;26.578;2023-04-03T08:50:41;15.55;;;8.23;;
21233;SDS011;10774;42.178;26.578;2023-04-03T08:53:20;14.40;;;7.40;;
21233;SDS011;10774;42.178;26.578;2023-04-03T08:55:51;17.20;;;9.43;;
21233;SDS011;10774;42.178;26.578;2023-04-03T08:58:21;21.70;;;12.18;;
21233;SDS011;10774;42.178;26.578;2023-04-03T09:03:42;12.43;;;6.32;;
21233;SDS011;10774;42.178;26.578;2023-04-03T09:06:12;9.38;;;6.93;;
21233;SDS011;10774;42.178;26.578;2023-04-03T09:13:52;10.00;;;4.72;;
21233;SDS011;10774;42.178;26.578;2023-04-03T09:16:56;8.02;;;3.38;;
21233;SDS011;10774;42.178;26.578;2023-04-03T09:22:07;11.73;;;5.60;;
21233;SDS011;10774;42.178;26.578;2023-04-03T09:24:41;8.00;;;4.57;;
21233;SDS011;10774;42.178;26.578;2023-04-03T09:27:09;9.13;;;4.85;;
21233;SDS011;10774;42.178;26.578;2023-04-03T09:29:40;7.32;;;4.18;;
21233;SDS011;10774;42.178;26.578;2023-04-03T09:34:51;9.63;;;4.93;;
21233;SDS011;10774;42.178;26.578;2023-04-03T09:40:05;11.10;;;5.32;;
21233;SDS011;10774;42.178;26.578;2023-04-03T09:42:38;11.82;;;4.55;;
21233;SDS011;10774;42.178;26.578;2023-04-03T09:45:18;10.85;;;5.57;;
21233;SDS011;10774;42.178;26.578;2023-04-03T09:51:00;13.95;;;5.20;;
21233;SDS011;10774;42.178;26.578;2023-04-03T09:53:36;12.60;;;4.70;;
21233;SDS011;10774;42.178;26.578;2023-04-03T09:58:44;9.20;;;4.05;;
21233;SDS011;10774;42.178;26.578;2023-04-03T10:06:40;16.33;;;4.75;;
21233;SDS011;10774;42.178;26.578;2023-04-03T10:09:22;13.40;;;6.00;;
21233;SDS011;10774;42.178;26.578;2023-04-03T10:14:31;12.45;;;4.80;;
21233;SDS011;10774;42.178;26.578;2023-04-03T10:17:15;12.48;;;4.80;;
21233;SDS011;10774;42.178;26.578;2023-04-03T10:22:40;11.63;;;4.82;;
21233;SDS011;10774;42.178;26.578;2023-04-03T10:41:32;12.75;;;4.97;;
21233;SDS011;10774;42.178;26.578;2023-04-03T10:49:54;9.85;;;4.57;;
21233;SDS011;10774;42.178;26.578;2023-04-03T10:52:23;13.52;;;5.93;;
21233;SDS011;10774;42.178;26.578;2023-04-03T10:55:01;10.50;;;5.07;;
21233;SDS011;10774;42.178;26.578;2023-04-03T10:57:35;14.05;;;6.55;;
21233;SDS011;10774;42.178;26.578;2023-04-03T11:00:05;16.85;;;8.27;;
21233;SDS011;10774;42.178;26.578;2023-04-03T11:02:48;19.38;;;9.35;;
21233;SDS011;10774;42.178;26.578;2023-04-03T11:07:55;21.35;;;9.07;;
21233;SDS011;10774;42.178;26.578;2023-04-03T11:10:24;13.73;;;6.10;;
21233;SDS011;10774;42.178;26.578;2023-04-03T11:13:08;10.90;;;6.03;;
21233;SDS011;10774;42.178;26.578;2023-04-03T11:15:38;10.25;;;5.22;;
21233;SDS011;10774;42.178;26.578;2023-04-03T11:18:06;14.27;;;7.65;;
21233;SDS011;10774;42.178;26.578;2023-04-03T11:20:38;16.25;;;7.82;;
21233;SDS011;10774;42.178;26.578;2023-04-03T11:23:42;14.07;;;6.90;;
21233;SDS011;10774;42.178;26.578;2023-04-03T11:26:12;14.52;;;6.55;;
21233;SDS011;10774;42.178;26.578;2023-04-03T11:28:39;10.65;;;5.97;;
21233;SDS011;10774;42.178;26.578;2023-04-03T11:31:19;13.30;;;5.90;;
21233;SDS011;10774;42.178;26.578;2023-04-03T11:36:54;16.02;;;6.03;;
21233;SDS011;10774;42.178;26.578;2023-04-03T11:42:22;9.70;;;4.57;;
21233;SDS011;10774;42.178;26.578;2023-04-03T11:50:47;8.95;;;4.10;;
21233;SDS011;10774;42.178;26.578;2023-04-03T11:55:43;9.55;;;4.35;;
21233;SDS011;10774;42.178;26.578;2023-04-03T12:05:53;10.75;;;6.63;;
21233;SDS011;10774;42.178;26.578;2023-04-03T12:08:24;13.05;;;6.63;;
21233;SDS011;10774;42.178;26.578;2023-04-03T12:40:43;7.22;;;4.28;;
21233;SDS011;10774;42.178;26.578;2023-04-03T12:46:04;9.77;;;6.70;;
21233;SDS011;10774;42.178;26.578;2023-04-03T12:48:51;7.03;;;3.78;;
21233;SDS011;10774;42.178;26.578;2023-04-03T12:54:49;6.93;;;4.38;;
21233;SDS011;10774;42.178;26.578;2023-04-03T12:59:42;15.95;;;11.43;;
21233;SDS011;10774;42.178;26.578;2023-04-03T13:02:22;23.20;;;16.48;;
21233;SDS011;10774;42.178;26.578;2023-04-03T13:04:53;36.55;;;27.75;;
21233;SDS011;10774;42.178;26.578;2023-04-03T13:12:35;17.05;;;10.27;;
21233;SDS011;10774;42.178;26.578;2023-04-03T13:15:29;16.08;;;11.30;;
21233;SDS011;10774;42.178;26.578;2023-04-03T13:18:05;13.98;;;9.65;;
21233;SDS011;10774;42.178;26.578;2023-04-03T13:20:49;11.45;;;6.28;;
21233;SDS011;10774;42.178;26.578;2023-04-03T13:23:16;23.83;;;11.30;;
21233;SDS011;10774;42.178;26.578;2023-04-03T13:25:45;16.45;;;9.32;;
21233;SDS011;10774;42.178;26.578;2023-04-03T13:28:13;12.85;;;6.38;;
21233;SDS011;10774;42.178;26.578;2023-04-03T13:31:18;14.30;;;9.43;;
21233;SDS011;10774;42.178;26.578;2023-04-03T13:33:39;11.73;;;6.50;;
21233;SDS011;10774;42.178;26.578;2023-04-03T13:36:19;24.48;;;13.27;;
21233;SDS011;10774;42.178;26.578;2023-04-03T13:38:57;25.80;;;12.73;;
21233;SDS011;10774;42.178;26.578;2023-04-03T13:41:36;25.48;;;13.93;;
21233;SDS011;10774;42.178;26.578;2023-04-03T13:47:37;9.40;;;6.38;;
21233;SDS011;10774;42.178;26.578;2023-04-03T13:52:21;19.42;;;9.75;;
21233;SDS011;10774;42.178;26.578;2023-04-03T13:54:59;24.83;;;15.30;;
21233;SDS011;10774;42.178;26.578;2023-04-03T13:57:28;18.17;;;9.02;;
21233;SDS011;10774;42.178;26.578;2023-04-03T13:59:53;15.05;;;9.75;;
21233;SDS011;10774;42.178;26.578;2023-04-03T14:02:21;23.60;;;14.20;;
21233;SDS011;10774;42.178;26.578;2023-04-03T14:04:55;15.05;;;10.63;;
21233;SDS011;10774;42.178;26.578;2023-04-03T14:07:23;10.43;;;5.97;;
21233;SDS011;10774;42.178;26.578;2023-04-03T14:09:50;7.90;;;5.57;;
21233;SDS011;10774;42.178;26.578;2023-04-03T14:14:51;7.80;;;5.68;;
21233;SDS011;10774;42.178;26.578;2023-04-03T14:17:18;10.40;;;6.80;;
21233;SDS011;10774;42.178;26.578;2023-04-03T14:19:54;10.40;;;6.72;;
21233;SDS011;10774;42.178;26.578;2023-04-03T14:22:26;16.77;;;9.73;;
21233;SDS011;10774;42.178;26.578;2023-04-03T14:24:54;10.93;;;7.65;;
21233;SDS011;10774;42.178;26.578;2023-04-03T14:27:27;12.95;;;8.70;;
21233;SDS011;10774;42.178;26.578;2023-04-03T14:29:56;17.65;;;10.98;;
21233;SDS011;10774;42.178;26.578;2023-04-03T14:32:23;9.27;;;6.13;;
21233;SDS011;10774;42.178;26.578;2023-04-03T14:34:49;14.10;;;8.13;;
21233;SDS011;10774;42.178;26.578;2023-04-03T14:37:17;11.20;;;6.45;;
21233;SDS011;10774;42.178;26.578;2023-04-03T14:39:45;12.45;;;9.00;;
21233;SDS011;10774;42.178;26.578;2023-04-03T14:42:13;19.77;;;12.50;;
21233;SDS011;10774;42.178;26.578;2023-04-03T14:44:40;17.50;;;10.85;;
21233;SDS011;10774;42.178;26.578;2023-04-03T14:47:09;7.85;;;5.70;;
21233;SDS011;10774;42.178;26.578;2023-04-03T14:49:36;10.45;;;5.90;;
21233;SDS011;10774;42.178;26.578;2023-04-03T14:52:02;7.22;;;5.80;;
21233;SDS011;10774;42.178;26.578;2023-04-03T14:54:27;6.03;;;3.90;;
21233;SDS011;10774;42.178;26.578;2023-04-03T14:56:54;6.18;;;4.32;;
21233;SDS011;10774;42.178;26.578;2023-04-03T14:59:37;6.85;;;6.10;;
21233;SDS011;10774;42.178;26.578;2023-04-03T15:02:08;8.52;;;6.00;;
21233;SDS011;10774;42.178;26.578;2023-04-03T15:04:44;9.95;;;7.65;;
21233;SDS011;10774;42.178;26.578;2023-04-03T15:07:10;9.30;;;6.90;;
21233;SDS011;10774;42.178;26.578;2023-04-03T15:09:35;5.85;;;4.60;;
21233;SDS011;10774;42.178;26.578;2023-04-03T15:12:03;12.88;;;10.10;;
21233;SDS011;10774;42.178;26.578;2023-04-03T15:14:28;7.72;;;6.10;;
21233;SDS011;10774;42.178;26.578;2023-04-03T15:16:54;32.28;;;19.13;;
21233;SDS011;10774;42.178;26.578;2023-04-03T15:19:19;38.85;;;26.15;;
21233;SDS011;10774;42.178;26.578;2023-04-03T15:21:45;15.52;;;10.85;;
21233;SDS011;10774;42.178;26.578;2023-04-03T15:24:10;13.48;;;7.72;;
21233;SDS011;10774;42.178;26.578;2023-04-03T15:26:36;14.35;;;8.77;;
21233;SDS011;10774;42.178;26.578;2023-04-03T15:29:03;11.68;;;8.85;;
21233;SDS011;10774;42.178;26.578;2023-04-03T15:31:29;22.83;;;15.25;;
21233;SDS011;10774;42.178;26.578;2023-04-03T15:33:54;15.18;;;6.10;;
21233;SDS011;10774;42.178;26.578;2023-04-03T15:36:20;9.20;;;6.72;;
21233;SDS011;10774;42.178;26.578;2023-04-03T15:38:46;10.30;;;6.95;;
21233;SDS011;10774;42.178;26.578;2023-04-03T15:41:11;13.63;;;10.25;;
21233;SDS011;10774;42.178;26.578;2023-04-03T15:43:37;12.57;;;7.65;;
21233;SDS011;10774;42.178;26.578;2023-04-03T15:46:03;22.08;;;16.27;;
21233;SDS011;10774;42.178;26.578;2023-04-03T15:48:29;42.78;;;27.55;;
21233;SDS011;10774;42.178;26.578;2023-04-03T15:50:55;16.60;;;9.48;;
21233;SDS011;10774;42.178;26.578;2023-04-03T15:53:21;12.43;;;8.13;;
21233;SDS011;10774;42.178;26.578;2023-04-03T15:55:46;12.88;;;8.57;;
21233;SDS011;10774;42.178;26.578;2023-04-03T15:58:12;24.30;;;17.33;;
21233;SDS011;10774;42.178;26.578;2023-04-03T16:00:37;12.00;;;7.88;;
21233;SDS011;10774;42.178;26.578;2023-04-03T16:03:10;15.90;;;8.98;;
21233;SDS011;10774;42.178;26.578;2023-04-03T16:05:38;15.45;;;9.65;;
21233;SDS011;10774;42.178;26.578;2023-04-03T16:08:05;14.45;;;8.80;;
21233;SDS011;10774;42.178;26.578;2023-04-03T16:10:32;11.77;;;8.65;;
21233;SDS011;10774;42.178;26.578;2023-04-03T16:12:58;9.88;;;8.35;;
21233;SDS011;10774;42.178;26.578;2023-04-03T16:15:24;12.35;;;8.63;;
21233;SDS011;10774;42.178;26.578;2023-04-03T16:17:50;9.20;;;7.60;;
21233;SDS011;10774;42.178;26.578;2023-04-03T16:20:17;12.10;;;7.88;;
21233;SDS011;10774;42.178;26.578;2023-04-03T16:22:43;9.57;;;7.15;;
21233;SDS011;10774;42.178;26.578;2023-04-03T16:25:10;10.40;;;7.07;;
21233;SDS011;10774;42.178;26.578;2023-04-03T16:27:35;9.15;;;6.40;;
21233;SDS011;10774;42.178;26.578;2023-04-03T16:30:02;7.75;;;5.68;;
21233;SDS011;10774;42.178;26.578;2023-04-03T16:32:29;8.20;;;6.13;;
21233;SDS011;10774;42.178;26.578;2023-04-03T16:34:56;10.32;;;7.00;;
21233;SDS011;10774;42.178;26.578;2023-04-03T16:37:22;11.68;;;8.23;;
21233;SDS011;10774;42.178;26.578;2023-04-03T16:39:48;19.08;;;13.07;;
21233;SDS011;10774;42.178;26.578;2023-04-03T16:42:13;13.30;;;7.63;;
21233;SDS011;10774;42.178;26.578;2023-04-03T16:44:39;12.05;;;8.52;;
21233;SDS011;10774;42.178;26.578;2023-04-03T16:47:05;18.20;;;8.75;;
21233;SDS011;10774;42.178;26.578;2023-04-03T16:49:31;10.85;;;6.93;;
21233;SDS011;10774;42.178;26.578;2023-04-03T16:51:59;10.70;;;7.65;;
21233;SDS011;10774;42.178;26.578;2023-04-03T16:54:25;18.13;;;10.73;;